Time,TemperatureF,DewpointF,PressureIn,WindDirection,WindDirectionDegrees,WindSpeedMPH,WindSpeedGustMPH,Humidity,HourlyPrecipIn,Conditions,Clouds,dailyrainin,SoftwareType,DateUTC
2013-03-24 00:00:00,27.6,19.8,29.24,NNE,22,14.6,14.6,72,0.00,,---,0.00,VWS V13.01,2013-03-24 05:00:00,
2013-03-24 00:05:00,27.6,19.8,29.24,NNE,22,7.0,7.0,72,0.00,,---,0.00,VWS V13.01,2013-03-24 05:05:00,
2013-03-24 00:10:00,27.5,20.0,29.23,North,0,9.2,9.2,73,0.00,,---,0.00,VWS V13.01,2013-03-24 05:10:00,
2013-03-24 00:15:00,27.5,20.0,29.23,NNE,22,0.0,0.0,73,0.00,,---,0.00,VWS V13.01,2013-03-24 05:15:00,
2013-03-24 00:20:00,27.3,19.8,29.23,North,0,0.0,0.0,73,0.00,,---,0.00,VWS V13.01,2013-03-24 05:20:00,
2013-03-24 00:25:00,27.3,19.8,29.23,NNE,22,11.6,13.8,73,0.00,,---,0.00,VWS V13.01,2013-03-24 05:25:00,
2013-03-24 00:30:00,27.3,19.8,29.23,NNE,22,0.0,0.0,73,0.00,,---,0.00,VWS V13.01,2013-03-24 05:30:00,
2013-03-24 00:35:00,27.3,19.8,29.22,NNE,22,0.0,0.0,73,0.00,,---,0.00,VWS V13.01,2013-03-24 05:35:00,
2013-03-24 00:41:00,27.1,19.6,29.23,NNE,22,0.0,0.0,73,0.00,,---,0.00,VWS V13.01,2013-03-24 05:41:00,
2013-03-24 00:47:00,27.1,19.6,29.22,North,0,0.0,0.0,73,0.00,,---,0.00,VWS V13.01,2013-03-24 05:47:00,
2013-03-24 00:52:00,27.1,19.6,29.21,NNE,22,1.6,1.6,73,0.00,,---,0.00,VWS V13.01,2013-03-24 05:52:00,
2013-03-24 00:58:00,27.1,19.6,29.21,NNE,22,0.0,0.0,73,0.00,,---,0.00,VWS V13.01,2013-03-24 05:58:00,
2013-03-24 01:03:00,27.1,19.6,29.21,NNE,22,1.2,1.2,73,0.00,,---,0.00,VWS V13.01,2013-03-24 06:03:00,
2013-03-24 01:08:00,26.9,19.7,29.22,NNE,22,0.0,4.8,74,0.00,,---,0.00,VWS V13.01,2013-03-24 06:08:00,
2013-03-24 01:13:00,26.9,19.7,29.21,NNE,22,0.0,0.0,74,0.00,,---,0.00,VWS V13.01,2013-03-24 06:13:00,
2013-03-24 01:18:00,26.7,19.5,29.20,NNE,22,1.6,1.6,74,0.00,,---,0.00,VWS V13.01,2013-03-24 06:18:00,
2013-03-24 01:23:00,26.7,19.5,29.20,NNE,22,0.0,3.0,74,0.00,,---,0.00,VWS V13.01,2013-03-24 06:23:00,
2013-03-24 01:28:00,26.7,19.5,29.21,NNE,22,0.0,0.0,74,0.00,,---,0.00,VWS V13.01,2013-03-24 06:28:00,
2013-03-24 01:34:00,26.7,19.5,29.20,NNE,22,5.2,5.2,74,0.00,,---,0.00,VWS V13.01,2013-03-24 06:34:00,
2013-03-24 01:39:00,26.7,19.5,29.20,NNE,22,4.0,4.0,74,0.00,,---,0.00,VWS V13.01,2013-03-24 06:39:00,
2013-03-24 01:44:00,26.6,19.8,29.20,NNE,22,4.0,4.0,75,0.00,,---,0.00,VWS V13.01,2013-03-24 06:44:00,
2013-03-24 01:49:00,26.6,19.8,29.21,NNE,22,0.0,0.0,75,0.00,,---,0.00,VWS V13.01,2013-03-24 06:49:00,
2013-03-24 01:54:00,26.6,19.8,29.20,NNE,22,0.0,0.0,75,0.00,,---,0.00,VWS V13.01,2013-03-24 06:54:00,
2013-03-24 01:59:00,26.6,19.8,29.20,North,0,0.0,3.4,75,0.00,,---,0.00,VWS V13.01,2013-03-24 06:59:00,
2013-03-24 02:04:00,26.6,19.8,29.21,NE,45,0.0,0.0,75,0.00,,---,0.00,VWS V13.01,2013-03-24 07:04:00,
2013-03-24 02:09:00,26.6,20.1,29.21,NNE,22,0.0,0.0,76,0.00,,---,0.00,VWS V13.01,2013-03-24 07:09:00,
2013-03-24 02:14:00,26.6,20.1,29.21,NNE,22,0.0,5.2,76,0.00,,---,0.00,VWS V13.01,2013-03-24 07:14:00,
2013-03-24 02:19:00,26.4,19.9,29.20,NNE,22,3.4,3.4,76,0.00,,---,0.00,VWS V13.01,2013-03-24 07:19:00,
2013-03-24 02:25:00,26.4,19.9,29.20,North,0,0.0,0.0,76,0.00,,---,0.00,VWS V13.01,2013-03-24 07:25:00,
2013-03-24 02:31:00,26.4,19.9,29.20,NNE,22,0.0,0.0,76,0.00,,---,0.00,VWS V13.01,2013-03-24 07:31:00,
2013-03-24 02:36:00,26.4,19.9,29.20,NNE,22,0.0,0.0,76,0.00,,---,0.00,VWS V13.01,2013-03-24 07:36:00,
2013-03-24 02:41:00,26.4,19.9,29.20,NNE,22,0.0,0.0,76,0.00,,---,0.00,VWS V13.01,2013-03-24 07:41:00,
2013-03-24 02:47:00,26.4,19.9,29.20,NNE,22,4.4,4.4,76,0.00,,---,0.00,VWS V13.01,2013-03-24 07:47:00,
2013-03-24 02:52:00,26.4,19.9,29.20,NNE,22,0.0,0.0,76,0.00,,---,0.00,VWS V13.01,2013-03-24 07:52:00,
2013-03-24 02:57:00,26.4,19.9,29.20,NNE,22,0.0,0.0,76,0.00,,---,0.00,VWS V13.01,2013-03-24 07:57:00,
2013-03-24 03:02:00,26.4,19.9,29.20,NNW,338,0.0,0.0,76,0.00,,---,0.00,VWS V13.01,2013-03-24 08:02:00,
2013-03-24 03:08:00,26.4,19.9,29.19,NNE,22,0.0,13.8,76,0.00,,---,0.00,VWS V13.01,2013-03-24 08:08:00,
2013-03-24 03:13:00,26.4,20.2,29.19,NNE,22,0.0,0.0,77,0.00,,---,0.00,VWS V13.01,2013-03-24 08:13:00,
2013-03-24 03:18:00,26.4,20.2,29.19,North,0,0.0,0.0,77,0.00,,---,0.00,VWS V13.01,2013-03-24 08:18:00,
2013-03-24 03:23:00,26.2,20.0,29.19,North,0,8.4,12.4,77,0.00,,---,0.00,VWS V13.01,2013-03-24 08:23:00,
2013-03-24 03:28:00,26.2,20.0,29.19,NNE,22,0.0,0.0,77,0.00,,---,0.00,VWS V13.01,2013-03-24 08:28:00,
2013-03-24 03:33:00,26.2,20.0,29.18,North,0,0.0,0.0,77,0.00,,---,0.00,VWS V13.01,2013-03-24 08:33:00,
2013-03-24 03:38:00,26.2,20.0,29.18,North,0,0.0,0.0,77,0.00,,---,0.00,VWS V13.01,2013-03-24 08:38:00,
2013-03-24 03:43:00,26.0,19.8,29.18,NW,315,0.0,0.0,77,0.00,,---,0.00,VWS V13.01,2013-03-24 08:43:00,
2013-03-24 03:48:00,26.0,19.8,29.18,North,0,3.4,3.4,77,0.00,,---,0.00,VWS V13.01,2013-03-24 08:48:00,
2013-03-24 03:53:00,26.0,19.8,29.18,North,0,0.0,0.0,77,0.00,,---,0.00,VWS V13.01,2013-03-24 08:53:00,
2013-03-24 03:58:00,25.8,19.6,29.18,North,0,0.0,0.0,77,0.00,,---,0.00,VWS V13.01,2013-03-24 08:58:00,
2013-03-24 04:03:00,25.8,19.6,29.17,NNE,22,0.0,0.0,77,0.00,,---,0.00,VWS V13.01,2013-03-24 09:03:00,
2013-03-24 04:08:00,25.8,19.6,29.18,North,0,0.0,0.0,77,0.00,,---,0.00,VWS V13.01,2013-03-24 09:08:00,
2013-03-24 04:13:00,25.8,19.6,29.18,North,0,0.0,0.0,77,0.00,,---,0.00,VWS V13.01,2013-03-24 09:13:00,
2013-03-24 04:18:00,25.8,19.6,29.17,NNE,22,3.0,3.0,77,0.00,,---,0.00,VWS V13.01,2013-03-24 09:18:00,
2013-03-24 04:23:00,25.8,19.6,29.17,North,0,0.0,0.0,77,0.00,,---,0.00,VWS V13.01,2013-03-24 09:23:00,
2013-03-24 04:28:00,25.8,19.6,29.17,NNW,338,0.0,0.0,77,0.00,,---,0.00,VWS V13.01,2013-03-24 09:28:00,
2013-03-24 04:33:00,25.7,19.8,29.17,NNW,338,2.2,2.2,78,0.00,,---,0.00,VWS V13.01,2013-03-24 09:33:00,
2013-03-24 04:38:00,25.7,19.8,29.17,NNE,22,9.2,9.2,78,0.00,,---,0.00,VWS V13.01,2013-03-24 09:38:00,
2013-03-24 04:43:00,25.7,19.8,29.17,North,0,0.0,0.0,78,0.00,,---,0.00,VWS V13.01,2013-03-24 09:43:00,
2013-03-24 04:48:00,25.7,19.8,29.16,NNW,338,0.0,0.0,78,0.00,,---,0.00,VWS V13.01,2013-03-24 09:48:00,
2013-03-24 04:53:00,25.7,19.8,29.17,NNE,22,0.0,5.8,78,0.00,,---,0.00,VWS V13.01,2013-03-24 09:53:00,
2013-03-24 04:58:00,25.7,19.8,29.16,NW,315,21.0,21.0,78,0.00,,---,0.00,VWS V13.01,2013-03-24 09:58:00,
2013-03-24 05:03:00,25.5,19.6,29.16,NNE,22,0.0,0.0,78,0.00,,---,0.00,VWS V13.01,2013-03-24 10:03:00,
2013-03-24 05:08:00,25.5,19.9,29.16,NW,315,0.0,0.0,79,0.00,,---,0.00,VWS V13.01,2013-03-24 10:08:00,
2013-03-24 05:13:00,25.5,19.9,29.16,NW,315,0.0,0.0,79,0.00,,---,0.00,VWS V13.01,2013-03-24 10:13:00,
2013-03-24 05:18:00,25.5,20.2,29.16,NW,315,12.4,12.4,80,0.00,,---,0.00,VWS V13.01,2013-03-24 10:18:00,
2013-03-24 05:23:00,25.3,20.0,29.16,NNW,338,0.0,8.0,80,0.00,,---,0.00,VWS V13.01,2013-03-24 10:23:00,
2013-03-24 05:28:00,25.3,20.0,29.15,NNW,338,0.0,0.0,80,0.00,,---,0.00,VWS V13.01,2013-03-24 10:28:00,
2013-03-24 05:33:00,25.3,20.0,29.16,North,0,0.0,0.0,80,0.00,,---,0.00,VWS V13.01,2013-03-24 10:33:00,
2013-03-24 05:38:00,25.1,19.8,29.15,North,0,0.0,0.0,80,0.00,,---,0.00,VWS V13.01,2013-03-24 10:38:00,
2013-03-24 05:43:00,25.1,19.8,29.15,North,0,0.0,0.0,80,0.00,,---,0.00,VWS V13.01,2013-03-24 10:43:00,
2013-03-24 05:48:00,25.1,19.8,29.15,NNE,22,0.0,0.0,80,0.00,,---,0.00,VWS V13.01,2013-03-24 10:48:00,
2013-03-24 05:53:00,25.1,19.8,29.15,NNE,22,0.0,0.0,80,0.00,,---,0.00,VWS V13.01,2013-03-24 10:53:00,
2013-03-24 05:58:00,25.1,19.8,29.15,NNE,22,4.0,4.0,80,0.00,,---,0.00,VWS V13.01,2013-03-24 10:58:00,
2013-03-24 06:03:00,25.1,19.8,29.15,NNE,22,0.0,0.0,80,0.00,,---,0.00,VWS V13.01,2013-03-24 11:03:00,
2013-03-24 06:08:00,24.9,19.6,29.15,NNE,22,4.4,4.4,80,0.00,,---,0.00,VWS V13.01,2013-03-24 11:08:00,
2013-03-24 06:13:00,24.9,19.6,29.15,NNE,22,0.0,0.0,80,0.00,,---,0.00,VWS V13.01,2013-03-24 11:13:00,
2013-03-24 06:18:00,24.9,19.6,29.15,NNE,22,0.0,0.0,80,0.00,,---,0.00,VWS V13.01,2013-03-24 11:18:00,
2013-03-24 06:23:00,24.9,19.6,29.15,NNE,22,0.0,0.0,80,0.00,,---,0.00,VWS V13.01,2013-03-24 11:23:00,
2013-03-24 06:28:00,24.9,19.9,29.15,NW,315,0.0,0.0,81,0.00,,---,0.00,VWS V13.01,2013-03-24 11:28:00,
2013-03-24 06:33:00,24.9,19.9,29.15,NNE,22,0.0,10.2,81,0.00,,---,0.00,VWS V13.01,2013-03-24 11:33:00,
2013-03-24 06:38:00,24.9,19.6,29.15,NNE,22,0.0,19.2,80,0.00,,---,0.00,VWS V13.01,2013-03-24 11:38:00,
2013-03-24 06:43:00,24.9,19.6,29.14,NNE,22,10.2,10.2,80,0.00,,---,0.00,VWS V13.01,2013-03-24 11:43:00,
2013-03-24 06:48:00,24.9,19.6,29.15,NNE,22,3.0,3.0,80,0.00,,---,0.00,VWS V13.01,2013-03-24 11:48:00,
2013-03-24 06:53:00,24.9,19.6,29.15,North,0,10.2,10.2,80,0.00,,---,0.00,VWS V13.01,2013-03-24 11:53:00,
2013-03-24 06:58:00,24.9,19.6,29.15,NNE,22,13.8,13.8,80,0.00,,---,0.00,VWS V13.01,2013-03-24 11:58:00,
2013-03-24 07:04:00,24.9,19.6,29.14,NNE,22,12.0,14.2,80,0.00,,---,0.00,VWS V13.01,2013-03-24 12:04:00,
2013-03-24 07:09:00,24.9,19.6,29.15,NNE,22,6.6,6.6,80,0.00,,---,0.00,VWS V13.01,2013-03-24 12:09:00,
2013-03-24 07:14:00,25.1,19.8,29.15,NNE,22,9.2,9.2,80,0.00,,---,0.00,VWS V13.01,2013-03-24 12:14:00,
2013-03-24 07:19:00,24.9,19.6,29.15,NNE,22,0.0,0.0,80,0.00,,---,0.00,VWS V13.01,2013-03-24 12:19:00,
2013-03-24 07:24:00,25.1,19.8,29.15,North,0,0.0,0.0,80,0.00,,---,0.00,VWS V13.01,2013-03-24 12:24:00,
2013-03-24 07:29:00,24.9,19.6,29.15,North,0,18.2,18.2,80,0.00,,---,0.00,VWS V13.01,2013-03-24 12:29:00,
2013-03-24 07:34:00,24.9,19.6,29.15,NNE,22,0.0,5.2,80,0.00,,---,0.00,VWS V13.01,2013-03-24 12:34:00,
2013-03-24 07:39:00,24.9,19.6,29.15,NNE,22,13.4,13.4,80,0.00,,---,0.00,VWS V13.01,2013-03-24 12:39:00,
2013-03-24 07:44:00,24.9,19.6,29.15,NE,45,5.2,7.6,80,0.00,,---,0.00,VWS V13.01,2013-03-24 12:44:00,
2013-03-24 07:49:00,25.1,19.8,29.15,NE,45,8.0,12.8,80,0.00,,---,0.00,VWS V13.01,2013-03-24 12:49:00,
2013-03-24 07:54:00,25.1,19.8,29.15,NNE,22,0.0,0.0,80,0.00,,---,0.00,VWS V13.01,2013-03-24 12:54:00,
2013-03-24 07:59:00,25.1,19.8,29.15,North,0,0.0,8.0,80,0.00,,---,0.00,VWS V13.01,2013-03-24 12:59:00,
2013-03-24 08:05:00,25.3,20.0,29.15,NNE,22,0.0,0.0,80,0.00,,---,0.00,VWS V13.01,2013-03-24 13:05:00,
2013-03-24 08:10:00,25.5,20.2,29.15,NNE,22,0.0,0.0,80,0.00,,---,0.00,VWS V13.01,2013-03-24 13:10:00,
2013-03-24 08:15:00,25.5,20.2,29.15,NNE,22,3.4,3.4,80,0.00,,---,0.00,VWS V13.01,2013-03-24 13:15:00,
2013-03-24 08:20:00,25.5,20.2,29.14,NNE,22,0.0,0.0,80,0.00,,---,0.00,VWS V13.01,2013-03-24 13:20:00,
2013-03-24 08:25:00,25.7,20.4,29.14,NNE,22,0.0,0.0,80,0.00,,---,0.00,VWS V13.01,2013-03-24 13:25:00,
2013-03-24 08:30:00,25.7,20.7,29.14,North,0,5.2,5.2,81,0.00,,---,0.00,VWS V13.01,2013-03-24 13:30:00,
2013-03-24 08:35:00,25.7,20.4,29.14,North,0,0.0,0.0,80,0.00,,---,0.00,VWS V13.01,2013-03-24 13:35:00,
2013-03-24 08:40:00,25.8,20.8,29.14,NNE,22,4.0,4.0,81,0.00,,---,0.00,VWS V13.01,2013-03-24 13:40:00,
2013-03-24 08:45:00,25.8,20.8,29.14,NNE,22,0.0,0.0,81,0.00,,---,0.00,VWS V13.01,2013-03-24 13:45:00,
2013-03-24 08:50:00,26.0,21.0,29.14,NNE,22,0.0,0.0,81,0.00,,---,0.00,VWS V13.01,2013-03-24 13:50:00,
2013-03-24 08:55:00,26.2,21.2,29.13,NNE,22,1.6,9.2,81,0.00,,---,0.00,VWS V13.01,2013-03-24 13:55:00,
2013-03-24 09:00:00,26.2,21.2,29.13,NNE,22,3.4,3.4,81,0.00,,---,0.00,VWS V13.01,2013-03-24 14:00:00,
2013-03-24 09:05:00,26.2,20.9,29.13,NNE,22,0.0,0.0,80,0.00,,---,0.00,VWS V13.01,2013-03-24 14:05:00,
2013-03-24 09:10:00,26.4,21.1,29.13,NNE,22,0.0,14.2,80,0.00,,---,0.00,VWS V13.01,2013-03-24 14:10:00,
2013-03-24 09:15:00,26.4,21.1,29.13,NNE,22,0.0,0.0,80,0.00,,---,0.00,VWS V13.01,2013-03-24 14:15:00,
2013-03-24 09:20:00,26.6,21.3,29.13,NNE,22,10.2,10.2,80,0.00,,---,0.00,VWS V13.01,2013-03-24 14:20:00,
2013-03-24 09:25:00,26.6,21.3,29.13,North,0,14.2,14.2,80,0.00,,---,0.00,VWS V13.01,2013-03-24 14:25:00,
2013-03-24 09:30:00,26.6,21.3,29.13,NNE,22,0.0,0.0,80,0.00,,---,0.00,VWS V13.01,2013-03-24 14:30:00,
2013-03-24 09:35:00,26.7,21.1,29.12,North,0,0.0,0.0,79,0.00,,---,0.00,VWS V13.01,2013-03-24 14:35:00,
2013-03-24 09:40:00,26.9,21.3,29.12,NNE,22,3.0,3.0,79,0.00,,---,0.00,VWS V13.01,2013-03-24 14:40:00,
2013-03-24 09:45:00,26.9,21.3,29.12,NNE,22,0.0,0.0,79,0.00,,---,0.00,VWS V13.01,2013-03-24 14:45:00,
2013-03-24 09:50:00,27.1,21.5,29.12,North,0,0.0,0.0,79,0.00,,---,0.00,VWS V13.01,2013-03-24 14:50:00,
2013-03-24 09:55:00,27.3,21.7,29.12,NNE,22,0.0,0.8,79,0.00,,---,0.00,VWS V13.01,2013-03-24 14:55:00,
2013-03-24 10:00:00,27.6,22.0,29.12,North,0,9.8,9.8,79,0.00,,---,0.00,VWS V13.01,2013-03-24 15:00:00,
2013-03-24 10:05:00,27.6,22.0,29.12,North,0,12.8,12.8,79,0.00,,---,0.00,VWS V13.01,2013-03-24 15:05:00,
2013-03-24 10:10:00,28.0,22.3,29.12,NE,45,0.0,15.6,79,0.00,,---,0.00,VWS V13.01,2013-03-24 15:10:00,
2013-03-24 10:15:00,28.0,22.3,29.12,North,0,10.6,10.6,79,0.00,,---,0.00,VWS V13.01,2013-03-24 15:15:00,
2013-03-24 10:20:00,28.0,22.3,29.12,NNE,22,0.0,0.0,79,0.00,,---,0.00,VWS V13.01,2013-03-24 15:20:00,
2013-03-24 10:25:00,28.2,22.2,29.12,NNE,22,5.8,5.8,78,0.00,,---,0.00,VWS V13.01,2013-03-24 15:25:00,
2013-03-24 10:31:00,28.2,22.2,29.12,North,0,5.2,5.2,78,0.00,,---,0.00,VWS V13.01,2013-03-24 15:31:00,
2013-03-24 10:37:00,28.5,22.5,29.12,NNE,22,13.4,13.4,78,0.00,,---,0.00,VWS V13.01,2013-03-24 15:37:00,
2013-03-24 10:42:00,28.9,22.9,29.13,NNE,22,5.2,5.2,78,0.00,,---,0.00,VWS V13.01,2013-03-24 15:42:00,
2013-03-24 10:48:00,29.1,22.8,29.13,NNE,22,9.8,9.8,77,0.00,,---,0.00,VWS V13.01,2013-03-24 15:48:00,
2013-03-24 10:53:00,29.1,22.8,29.13,NNE,22,0.0,0.0,77,0.00,,---,0.00,VWS V13.01,2013-03-24 15:53:00,
2013-03-24 10:58:00,29.1,22.8,29.13,North,0,4.4,4.4,77,0.00,,---,0.00,VWS V13.01,2013-03-24 15:58:00,
2013-03-24 11:03:00,29.1,22.8,29.13,NNE,22,0.0,0.0,77,0.00,,---,0.00,VWS V13.01,2013-03-24 16:03:00,
2013-03-24 11:08:00,29.3,23.3,29.13,NNE,22,4.4,4.8,78,0.00,,---,0.00,VWS V13.01,2013-03-24 16:08:00,
2013-03-24 11:13:00,29.4,23.4,29.13,NNE,22,0.0,0.0,78,0.00,,---,0.00,VWS V13.01,2013-03-24 16:13:00,
2013-03-24 11:18:00,29.4,23.1,29.13,North,0,0.0,0.0,77,0.00,,---,0.00,VWS V13.01,2013-03-24 16:18:00,
2013-03-24 11:23:00,29.6,23.6,29.13,North,0,4.8,4.8,78,0.00,,---,0.00,VWS V13.01,2013-03-24 16:23:00,
2013-03-24 11:29:00,29.6,23.6,29.13,North,0,0.0,0.0,78,0.00,,---,0.00,VWS V13.01,2013-03-24 16:29:00,
2013-03-24 11:34:00,29.4,23.1,29.13,NNE,22,6.6,6.6,77,0.00,,---,0.00,VWS V13.01,2013-03-24 16:34:00,
2013-03-24 11:39:00,29.8,23.8,29.12,NNE,22,0.0,0.0,78,0.00,,---,0.00,VWS V13.01,2013-03-24 16:39:00,
2013-03-24 11:44:00,29.8,23.8,29.12,North,0,9.2,9.2,78,0.00,,---,0.00,VWS V13.01,2013-03-24 16:44:00,
2013-03-24 11:50:00,29.8,23.8,29.12,NNE,22,0.0,0.0,78,0.00,,---,0.00,VWS V13.01,2013-03-24 16:50:00,
2013-03-24 11:55:00,30.0,24.0,29.12,NNE,22,0.0,0.0,78,0.00,,---,0.00,VWS V13.01,2013-03-24 16:55:00,
2013-03-24 12:00:00,30.2,24.2,29.12,NNE,22,7.0,7.0,78,0.00,,---,0.00,VWS V13.01,2013-03-24 17:00:00,
2013-03-24 12:05:00,30.3,24.3,29.12,NNE,22,10.6,10.6,78,0.00,,---,0.00,VWS V13.01,2013-03-24 17:05:00,
2013-03-24 12:10:00,30.7,24.7,29.11,North,0,13.8,13.8,78,0.00,,---,0.00,VWS V13.01,2013-03-24 17:10:00,
2013-03-24 12:15:00,30.9,24.5,29.11,NNE,22,0.0,0.0,77,0.00,,---,0.00,VWS V13.01,2013-03-24 17:15:00,
2013-03-24 12:21:00,31.2,24.8,29.11,NNE,22,4.4,8.4,77,0.00,,---,0.00,VWS V13.01,2013-03-24 17:21:00,
2013-03-24 12:26:00,31.6,25.2,29.10,NNE,22,0.0,0.0,77,0.00,,---,0.00,VWS V13.01,2013-03-24 17:26:00,
2013-03-24 12:32:00,31.8,25.1,29.10,North,0,0.0,0.0,76,0.00,,---,0.00,VWS V13.01,2013-03-24 17:32:00,
2013-03-24 12:38:00,31.8,25.4,29.10,North,0,4.8,4.8,77,0.00,,---,0.00,VWS V13.01,2013-03-24 17:38:00,
2013-03-24 12:43:00,31.8,25.4,29.10,North,0,18.6,18.6,77,0.00,,---,0.00,VWS V13.01,2013-03-24 17:43:00,
2013-03-24 12:48:00,32.1,25.7,29.10,NNE,22,0.0,0.0,77,0.00,,---,0.00,VWS V13.01,2013-03-24 17:48:00,
2013-03-24 12:53:00,32.1,25.7,29.10,NNE,22,0.0,0.0,77,0.00,,---,0.00,VWS V13.01,2013-03-24 17:53:00,
2013-03-24 12:59:00,32.1,25.7,29.09,NNE,22,4.4,4.4,77,0.00,,---,0.00,VWS V13.01,2013-03-24 17:59:00,
2013-03-24 13:04:00,32.3,25.9,29.09,NNE,22,0.0,2.6,77,0.00,,---,0.00,VWS V13.01,2013-03-24 18:04:00,
2013-03-24 13:09:00,32.1,25.7,29.09,North,0,21.0,21.0,77,0.00,,---,0.00,VWS V13.01,2013-03-24 18:09:00,
2013-03-24 13:14:00,32.5,26.1,29.09,North,0,2.2,9.2,77,0.00,,---,0.00,VWS V13.01,2013-03-24 18:14:00,
2013-03-24 13:19:00,32.7,26.0,29.09,NE,45,0.0,14.6,76,0.00,,---,0.00,VWS V13.01,2013-03-24 18:19:00,
2013-03-24 13:24:00,32.7,26.0,29.09,NNW,338,23.6,23.6,76,0.00,,---,0.00,VWS V13.01,2013-03-24 18:24:00,
2013-03-24 13:29:00,33.0,26.3,29.09,NNW,338,9.8,9.8,76,0.00,,---,0.00,VWS V13.01,2013-03-24 18:29:00,
2013-03-24 13:35:00,33.2,26.1,29.09,North,0,4.4,4.4,75,0.00,,---,0.00,VWS V13.01,2013-03-24 18:35:00,
2013-03-24 13:40:00,33.4,26.3,29.09,North,0,4.4,24.6,75,0.00,,---,0.00,VWS V13.01,2013-03-24 18:40:00,
2013-03-24 13:45:00,33.6,26.5,29.09,North,0,11.0,11.0,75,0.00,,---,0.00,VWS V13.01,2013-03-24 18:45:00,
2013-03-24 13:51:00,33.6,26.5,29.09,North,0,0.0,0.0,75,0.00,,---,0.00,VWS V13.01,2013-03-24 18:51:00,
2013-03-24 13:57:00,33.6,26.5,29.09,North,0,14.6,14.6,75,0.00,,---,0.00,VWS V13.01,2013-03-24 18:57:00,
2013-03-24 14:02:00,33.6,26.5,29.08,NNE,22,0.0,0.0,75,0.00,,---,0.00,VWS V13.01,2013-03-24 19:02:00,
2013-03-24 14:08:00,33.6,26.2,29.08,NNE,22,13.8,13.8,74,0.00,,---,0.00,VWS V13.01,2013-03-24 19:08:00,
2013-03-24 14:13:00,33.6,26.2,29.09,NNW,338,9.2,9.2,74,0.00,,---,0.00,VWS V13.01,2013-03-24 19:13:00,
2013-03-24 14:18:00,33.6,26.2,29.08,NNE,22,23.2,23.2,74,0.00,,---,0.00,VWS V13.01,2013-03-24 19:18:00,
2013-03-24 14:23:00,33.6,26.2,29.08,NW,315,8.4,8.4,74,0.00,,---,0.00,VWS V13.01,2013-03-24 19:23:00,
2013-03-24 14:28:00,33.6,26.2,29.08,NE,45,0.0,0.0,74,0.00,,---,0.00,VWS V13.01,2013-03-24 19:28:00,
2013-03-24 14:33:00,33.4,26.0,29.07,NNW,338,11.0,11.0,74,0.00,,---,0.00,VWS V13.01,2013-03-24 19:33:00,
2013-03-24 14:38:00,33.4,26.0,29.08,NNE,22,0.0,8.0,74,0.00,,---,0.00,VWS V13.01,2013-03-24 19:38:00,
2013-03-24 14:43:00,33.6,26.2,29.07,North,0,15.6,15.6,74,0.00,,---,0.00,VWS V13.01,2013-03-24 19:43:00,
2013-03-24 14:48:00,33.6,26.2,29.07,NNE,22,0.0,0.0,74,0.00,,---,0.00,VWS V13.01,2013-03-24 19:48:00,
2013-03-24 14:53:00,33.2,25.8,29.07,NNE,22,7.6,7.6,74,0.00,,---,0.00,VWS V13.01,2013-03-24 19:53:00,
2013-03-24 14:58:00,33.2,25.8,29.07,NNE,22,13.8,13.8,74,0.00,,---,0.00,VWS V13.01,2013-03-24 19:58:00,
2013-03-24 15:03:00,33.0,26.0,29.07,NNE,22,0.0,0.0,75,0.00,,---,0.00,VWS V13.01,2013-03-24 20:03:00,
2013-03-24 15:08:00,32.9,26.2,29.07,North,0,10.6,10.6,76,0.00,,---,0.00,VWS V13.01,2013-03-24 20:08:00,
2013-03-24 15:13:00,32.9,26.2,29.07,North,0,16.0,16.0,76,0.00,,---,0.00,VWS V13.01,2013-03-24 20:13:00,
2013-03-24 15:18:00,32.7,26.0,29.06,North,0,0.0,0.0,76,0.00,,---,0.00,VWS V13.01,2013-03-24 20:18:00,
2013-03-24 15:23:00,32.7,26.0,29.07,North,0,12.0,29.0,76,0.00,,---,0.00,VWS V13.01,2013-03-24 20:23:00,
2013-03-24 15:28:00,32.5,26.1,29.06,North,0,8.0,8.0,77,0.00,,---,0.00,VWS V13.01,2013-03-24 20:28:00,
2013-03-24 15:33:00,32.5,26.1,29.06,NNE,22,0.8,0.8,77,0.00,,---,0.00,VWS V13.01,2013-03-24 20:33:00,
2013-03-24 15:38:00,32.3,25.9,29.06,NNW,338,10.2,10.2,77,0.00,,---,0.00,VWS V13.01,2013-03-24 20:38:00,
2013-03-24 15:43:00,32.3,26.2,29.06,North,0,19.6,19.6,78,0.00,,---,0.00,VWS V13.01,2013-03-24 20:43:00,
2013-03-24 15:49:00,32.1,26.0,29.07,NNW,338,10.2,10.2,78,0.00,,---,0.00,VWS V13.01,2013-03-24 20:49:00,
2013-03-24 15:54:00,32.1,26.0,29.07,North,0,7.6,7.6,78,0.00,,---,0.00,VWS V13.01,2013-03-24 20:54:00,
2013-03-24 15:59:00,32.1,26.0,29.07,NNE,22,4.8,4.8,78,0.00,,---,0.00,VWS V13.01,2013-03-24 20:59:00,
2013-03-24 16:05:00,32.1,26.0,29.07,North,0,9.2,9.2,78,0.00,,---,0.00,VWS V13.01,2013-03-24 21:05:00,
2013-03-24 16:10:00,31.8,25.7,29.07,North,0,12.0,12.0,78,0.00,,---,0.00,VWS V13.01,2013-03-24 21:10:00,
2013-03-24 16:15:00,31.6,25.5,29.07,NW,315,17.4,17.4,78,0.00,,---,0.00,VWS V13.01,2013-03-24 21:15:00,
2013-03-24 16:20:00,31.6,25.5,29.07,North,0,12.0,12.0,78,0.00,,---,0.00,VWS V13.01,2013-03-24 21:20:00,
2013-03-24 16:25:00,31.6,25.5,29.07,North,0,8.8,8.8,78,0.00,,---,0.00,VWS V13.01,2013-03-24 21:25:00,
2013-03-24 16:30:00,31.2,25.1,29.07,NNE,22,4.8,4.8,78,0.00,,---,0.00,VWS V13.01,2013-03-24 21:30:00,
2013-03-24 16:35:00,31.2,25.1,29.06,North,0,5.8,5.8,78,0.00,,---,0.00,VWS V13.01,2013-03-24 21:35:00,
2013-03-24 16:40:00,31.2,25.1,29.06,NNW,338,15.2,15.2,78,0.00,,---,0.00,VWS V13.01,2013-03-24 21:40:00,
2013-03-24 16:45:00,31.2,25.1,29.07,NNE,22,6.6,6.6,78,0.00,,---,0.00,VWS V13.01,2013-03-24 21:45:00,
2013-03-24 16:50:00,31.2,25.1,29.06,NNE,22,8.0,8.0,78,0.00,,---,0.00,VWS V13.01,2013-03-24 21:50:00,
2013-03-24 16:55:00,31.1,25.4,29.07,NNE,22,7.6,9.8,79,0.00,,---,0.00,VWS V13.01,2013-03-24 21:55:00,
2013-03-24 17:00:00,30.9,25.2,29.07,NNE,22,0.0,0.0,79,0.00,,---,0.00,VWS V13.01,2013-03-24 22:00:00,
2013-03-24 17:05:00,30.9,25.2,29.07,NE,45,0.0,0.0,79,0.00,,---,0.00,VWS V13.01,2013-03-24 22:05:00,
2013-03-24 17:10:00,30.7,25.0,29.07,NNE,22,9.8,9.8,79,0.00,,---,0.00,VWS V13.01,2013-03-24 22:10:00,
2013-03-24 17:15:00,30.7,25.0,29.07,NNW,338,0.0,0.0,79,0.00,,---,0.00,VWS V13.01,2013-03-24 22:15:00,
2013-03-24 17:20:00,30.7,25.3,29.07,NNE,22,11.6,11.6,80,0.00,,---,0.00,VWS V13.01,2013-03-24 22:20:00,
2013-03-24 17:25:00,30.7,25.3,29.07,NNE,22,0.0,3.0,80,0.00,,---,0.00,VWS V13.01,2013-03-24 22:25:00,
2013-03-24 17:30:00,30.7,25.3,29.07,NNE,22,0.0,0.0,80,0.00,,---,0.00,VWS V13.01,2013-03-24 22:30:00,
2013-03-24 17:35:00,30.7,25.3,29.07,NE,45,18.6,18.6,80,0.00,,---,0.00,VWS V13.01,2013-03-24 22:35:00,
2013-03-24 17:40:00,30.5,25.4,29.07,NNE,22,0.0,0.0,81,0.00,,---,0.00,VWS V13.01,2013-03-24 22:40:00,
2013-03-24 17:45:00,30.3,25.2,29.08,NE,45,0.0,0.0,81,0.00,,---,0.00,VWS V13.01,2013-03-24 22:45:00,
2013-03-24 17:50:00,30.3,25.2,29.08,NNE,22,8.8,8.8,81,0.00,,---,0.00,VWS V13.01,2013-03-24 22:50:00,
2013-03-24 17:55:00,30.3,24.9,29.07,North,0,13.4,21.4,80,0.00,,---,0.00,VWS V13.01,2013-03-24 22:55:00,
2013-03-24 18:00:00,30.2,25.1,29.08,NNE,22,0.0,0.0,81,0.00,,---,0.00,VWS V13.01,2013-03-24 23:00:00,
2013-03-24 18:05:00,30.0,24.9,29.07,North,0,0.0,0.0,81,0.00,,---,0.00,VWS V13.01,2013-03-24 23:05:00,
2013-03-24 18:10:00,30.0,24.9,29.07,NNW,338,4.8,4.8,81,0.00,,---,0.00,VWS V13.01,2013-03-24 23:10:00,
2013-03-24 18:15:00,30.0,24.9,29.08,NNE,22,6.2,6.2,81,0.00,,---,0.00,VWS V13.01,2013-03-24 23:15:00,
2013-03-24 18:20:00,29.8,24.7,29.08,NNE,22,11.0,11.0,81,0.00,,---,0.00,VWS V13.01,2013-03-24 23:20:00,
2013-03-24 18:25:00,29.8,24.7,29.08,North,0,0.0,12.4,81,0.00,,---,0.00,VWS V13.01,2013-03-24 23:25:00,
2013-03-24 18:30:00,29.6,24.5,29.08,NNE,22,0.0,0.0,81,0.00,,---,0.00,VWS V13.01,2013-03-24 23:30:00,
2013-03-24 18:35:00,29.6,24.5,29.08,NNE,22,0.0,0.0,81,0.00,,---,0.00,VWS V13.01,2013-03-24 23:35:00,
2013-03-24 18:40:00,29.4,24.6,29.09,NE,45,4.8,4.8,82,0.00,,---,0.00,VWS V13.01,2013-03-24 23:40:00,
2013-03-24 18:45:00,29.4,24.6,29.09,North,0,10.2,10.2,82,0.00,,---,0.00,VWS V13.01,2013-03-24 23:45:00,
2013-03-24 18:50:00,29.4,24.6,29.09,North,0,16.0,16.0,82,0.00,,---,0.00,VWS V13.01,2013-03-24 23:50:00,
2013-03-24 18:55:00,29.3,24.5,29.09,NNE,22,0.0,4.8,82,0.00,,---,0.00,VWS V13.01,2013-03-24 23:55:00,
2013-03-24 19:00:00,29.3,24.5,29.09,North,0,14.6,14.6,82,0.00,,---,0.00,VWS V13.01,2013-03-25 00:00:00,
2013-03-24 19:05:00,29.1,24.3,29.09,NNE,22,6.2,6.2,82,0.00,,---,0.00,VWS V13.01,2013-03-25 00:05:00,
2013-03-24 19:10:00,29.1,24.3,29.09,North,0,0.0,4.4,82,0.00,,---,0.00,VWS V13.01,2013-03-25 00:10:00,
2013-03-24 19:15:00,28.9,24.1,29.09,North,0,10.6,10.6,82,0.00,,---,0.00,VWS V13.01,2013-03-25 00:15:00,
2013-03-24 19:20:00,28.9,24.4,29.10,North,0,0.0,0.0,83,0.00,,---,0.00,VWS V13.01,2013-03-25 00:20:00,
2013-03-24 19:25:00,28.7,24.2,29.10,NNE,22,0.0,16.0,83,0.00,,---,0.00,VWS V13.01,2013-03-25 00:25:00,
2013-03-24 19:30:00,28.7,24.2,29.10,North,0,17.0,17.0,83,0.00,,---,0.00,VWS V13.01,2013-03-25 00:30:00,
2013-03-24 19:35:00,28.5,24.0,29.10,NNE,22,12.4,12.4,83,0.00,,---,0.00,VWS V13.01,2013-03-25 00:35:00,
2013-03-24 19:40:00,28.5,24.0,29.10,NE,45,14.2,14.2,83,0.00,,---,0.00,VWS V13.01,2013-03-25 00:40:00,
2013-03-24 19:45:00,28.5,24.0,29.10,NNW,338,6.6,6.6,83,0.00,,---,0.00,VWS V13.01,2013-03-25 00:45:00,
2013-03-24 19:52:00,28.2,23.7,29.10,NNE,22,26.2,26.2,83,0.00,,---,0.00,VWS V13.01,2013-03-25 00:52:00,
2013-03-24 19:57:00,28.2,23.7,29.10,NNE,22,13.8,13.8,83,0.00,,---,0.00,VWS V13.01,2013-03-25 00:57:00,
2013-03-24 20:03:00,28.0,23.5,29.10,NNE,22,9.8,9.8,83,0.00,,---,0.00,VWS V13.01,2013-03-25 01:03:00,
2013-03-24 20:08:00,28.0,23.5,29.10,NNW,338,6.6,6.6,83,0.00,,---,0.00,VWS V13.01,2013-03-25 01:08:00,
2013-03-24 20:13:00,28.0,23.5,29.11,North,0,0.0,0.0,83,0.00,,---,0.00,VWS V13.01,2013-03-25 01:13:00,
2013-03-24 20:19:00,28.0,23.5,29.11,NNE,22,13.4,13.4,83,0.00,,---,0.00,VWS V13.01,2013-03-25 01:19:00,
2013-03-24 20:24:00,28.0,23.8,29.11,NNE,22,0.0,0.0,84,0.00,,---,0.00,VWS V13.01,2013-03-25 01:24:00,
2013-03-24 20:29:00,28.0,23.8,29.11,North,0,19.2,19.2,84,0.00,,---,0.00,VWS V13.01,2013-03-25 01:29:00,
2013-03-24 20:35:00,28.0,23.8,29.11,NNE,22,0.0,0.0,84,0.00,,---,0.00,VWS V13.01,2013-03-25 01:35:00,
2013-03-24 20:40:00,28.0,23.8,29.11,NNE,22,10.2,21.8,84,0.00,,---,0.00,VWS V13.01,2013-03-25 01:40:00,
2013-03-24 20:46:00,28.0,23.5,29.11,NNE,22,7.0,7.0,83,0.00,,---,0.00,VWS V13.01,2013-03-25 01:46:00,
2013-03-24 20:51:00,28.0,23.5,29.11,NNE,22,16.4,16.4,83,0.00,,---,0.00,VWS V13.01,2013-03-25 01:51:00,
2013-03-24 20:57:00,28.0,23.5,29.11,NNE,22,17.0,17.0,83,0.00,,---,0.00,VWS V13.01,2013-03-25 01:57:00,
2013-03-24 21:02:00,28.0,23.5,29.11,NNE,22,0.0,0.0,83,0.00,,---,0.00,VWS V13.01,2013-03-25 02:02:00,
2013-03-24 21:07:00,28.0,23.5,29.11,NNE,22,12.8,12.8,83,0.00,,---,0.00,VWS V13.01,2013-03-25 02:07:00,
2013-03-24 21:12:00,28.0,23.2,29.11,NNE,22,0.0,0.0,82,0.00,,---,0.00,VWS V13.01,2013-03-25 02:12:00,
2013-03-24 21:18:00,28.0,23.2,29.11,NNE,22,0.0,0.0,82,0.00,,---,0.00,VWS V13.01,2013-03-25 02:18:00,
2013-03-24 21:23:00,28.0,23.2,29.11,North,0,0.0,0.0,82,0.00,,---,0.00,VWS V13.01,2013-03-25 02:23:00,
2013-03-24 21:28:00,28.2,23.1,29.11,NNE,22,0.0,0.0,81,0.00,,---,0.00,VWS V13.01,2013-03-25 02:28:00,
2013-03-24 21:33:00,28.2,23.1,29.11,NNE,22,8.8,8.8,81,0.00,,---,0.00,VWS V13.01,2013-03-25 02:33:00,
2013-03-24 21:38:00,28.2,23.1,29.11,NNE,22,5.8,5.8,81,0.00,,---,0.00,VWS V13.01,2013-03-25 02:38:00,
2013-03-24 21:43:00,28.2,22.8,29.12,NNW,338,9.2,9.2,80,0.00,,---,0.00,VWS V13.01,2013-03-25 02:43:00,
2013-03-24 21:48:00,28.2,22.8,29.12,North,0,9.2,9.2,80,0.00,,---,0.00,VWS V13.01,2013-03-25 02:48:00,
2013-03-24 21:53:00,28.2,22.8,29.12,NNE,22,14.6,14.6,80,0.00,,---,0.00,VWS V13.01,2013-03-25 02:53:00,
2013-03-24 21:58:00,28.2,22.8,29.12,NNE,22,0.0,0.0,80,0.00,,---,0.00,VWS V13.01,2013-03-25 02:58:00,
2013-03-24 22:03:00,28.2,22.8,29.12,NNE,22,0.0,0.0,80,0.00,,---,0.00,VWS V13.01,2013-03-25 03:03:00,
2013-03-24 22:09:00,28.2,22.8,29.11,NNE,22,3.4,3.4,80,0.00,,---,0.00,VWS V13.01,2013-03-25 03:09:00,
2013-03-24 22:14:00,28.2,22.5,29.11,North,0,0.0,0.0,79,0.00,,---,0.00,VWS V13.01,2013-03-25 03:14:00,
2013-03-24 22:19:00,28.0,22.3,29.11,NNE,22,0.0,0.0,79,0.00,,---,0.00,VWS V13.01,2013-03-25 03:19:00,
2013-03-24 22:24:00,28.0,22.3,29.11,NNE,22,11.6,11.6,79,0.00,,---,0.00,VWS V13.01,2013-03-25 03:24:00,
2013-03-24 22:29:00,28.0,22.3,29.11,NNE,22,4.0,12.0,79,0.00,,---,0.00,VWS V13.01,2013-03-25 03:29:00,
2013-03-24 22:34:00,28.0,22.3,29.11,NNE,22,0.0,0.0,79,0.00,,---,0.00,VWS V13.01,2013-03-25 03:34:00,
2013-03-24 22:39:00,28.0,22.3,29.11,North,0,0.0,0.0,79,0.00,,---,0.00,VWS V13.01,2013-03-25 03:39:00,
2013-03-24 22:44:00,28.0,22.3,29.12,NNE,22,0.0,4.8,79,0.00,,---,0.00,VWS V13.01,2013-03-25 03:44:00,
2013-03-24 22:49:00,28.0,22.3,29.11,North,0,8.0,8.8,79,0.00,,---,0.00,VWS V13.01,2013-03-25 03:49:00,
2013-03-24 22:54:00,28.0,22.3,29.11,North,0,3.4,3.4,79,0.00,,---,0.00,VWS V13.01,2013-03-25 03:54:00,
2013-03-24 22:59:00,28.0,22.3,29.11,NNE,22,3.0,3.0,79,0.00,,---,0.00,VWS V13.01,2013-03-25 03:59:00,
2013-03-24 23:00:00,28.0,22.3,29.11,NNE,22,3.0,3.0,79,0.00,,---,0.00,VWS V13.01,2013-03-25 04:00:00,
2013-03-24 23:02:00,28.0,22.3,29.11,North,0,3.4,3.4,79,0.00,,---,0.00,VWS V13.01,2013-03-25 04:02:00,
2013-03-24 23:03:00,28.0,22.3,29.11,North,0,3.4,3.4,79,0.00,,---,0.00,VWS V13.01,2013-03-25 04:03:00,
2013-03-24 23:08:00,28.0,22.3,29.10,North,0,11.0,11.0,79,0.00,,---,0.00,VWS V13.01,2013-03-25 04:08:00,
2013-03-24 23:10:00,28.0,22.3,29.11,NNE,22,8.8,11.0,79,0.00,,---,0.00,VWS V13.01,2013-03-25 04:10:00,
2013-03-24 23:15:00,28.0,22.3,29.11,NE,45,3.0,3.0,79,0.00,,---,0.00,VWS V13.01,2013-03-25 04:15:00,
2013-03-24 23:21:00,28.0,22.3,29.11,NNE,22,10.2,10.2,79,0.00,,---,0.00,VWS V13.01,2013-03-25 04:21:00,
2013-03-24 23:26:00,28.0,22.3,29.11,North,0,12.4,12.4,79,0.00,,---,0.00,VWS V13.01,2013-03-25 04:26:00,
2013-03-24 23:31:00,28.0,22.3,29.11,NNE,22,5.8,10.2,79,0.00,,---,0.00,VWS V13.01,2013-03-25 04:31:00,
2013-03-24 23:37:00,28.2,22.5,29.11,North,0,3.0,3.0,79,0.00,,---,0.00,VWS V13.01,2013-03-25 04:37:00,
2013-03-24 23:42:00,28.2,22.5,29.11,North,0,8.4,12.0,79,0.00,,---,0.00,VWS V13.01,2013-03-25 04:42:00,
2013-03-24 23:47:00,28.2,22.5,29.11,NNW,338,0.0,0.0,79,0.00,,---,0.00,VWS V13.01,2013-03-25 04:47:00,
2013-03-24 23:52:00,28.0,22.3,29.11,NNE,22,12.8,12.8,79,0.00,,---,0.00,VWS V13.01,2013-03-25 04:52:00,
2013-03-24 23:57:00,28.0,22.3,29.11,NNE,22,10.6,16.4,79,0.00,,---,0.00,VWS V13.01,2013-03-25 04:57:00,